Latest Weather Observations for Westmere

IDV60801

Issued at 9:32 pm EDT Wednesday 22 February 2017 (issued every 30 minutes, with the page automatically refreshed every 10 minutes)

About weather observations | Map of weather stations | Latest weather observations for VIC | Other Formats
Station Details ID: 089112 Name: WESTMERE Lat: -37.71 Lon: 142.94 Height: 226.0 m
Data from the previous 72 hours. | See also: Recent months at Westmere
Date/Time
EDT
Temp
°C
App
Temp
°C
Dew
Point
°C
Rel
Hum
%
Delta-T
°C
Wind Press
QNH
hPa
Press
MSL
hPa
Rain since
9am
mm
Dir  Spd
km/h
Gust
km/h
Spd
kts
Gust
kts
22/05:00pm 33.6 25.4 -0.9 11 16.8 NNW 32 41 17 22 1007.1 1006.4 0.0
22/04:36pm 33.7 25.3 -0.8 11 16.8 NNW 33 54 18 29 1007.4 1006.7 0.0
22/04:30pm 33.6 25.2 -0.9 11 16.8 NNW 33 48 18 26 1007.3 1006.6 0.0
22/04:00pm 33.4 24.2 -1.0 11 16.7 NNW 37 59 20 32 1008.1 1007.3 0.0
22/03:33pm 33.0 23.2 -0.2 12 16.3 NNW 41 61 22 33 1008.4 1007.6 0.0
22/03:30pm 32.3 22.0 -0.7 12 16.0 NNW 43 61 23 33 1008.5 1007.7 0.0
22/03:00pm 33.5 23.2 -1.0 11 16.8 N 43 70 23 38 1009.1 1008.3 0.0
22/02:30pm 32.0 22.9 -0.9 12 15.9 N 37 56 20 30 1009.5 1008.7 0.0
22/02:01pm 31.3 21.8 -0.4 13 15.3 N 39 57 21 31 1010.1 1009.3 0.0
22/02:00pm 31.3 22.2 -0.4 13 15.3 N 37 52 20 28 1010.1 1009.3 0.0
22/01:37pm 30.1 21.2 0.6 15 14.4 N 37 69 20 37 1010.2 1009.5 0.0
22/01:30pm 30.1 20.8 0.6 15 14.4 N 39 57 21 31 1010.5 1009.8 0.0
22/01:06pm 29.1 19.8 0.7 16 13.8 N 39 57 21 31 1010.6 1009.9 0.0
22/01:00pm 29.7 20.7 0.3 15 14.2 N 37 54 20 29 1010.4 1009.7 0.0
22/12:30pm 28.6 19.1 2.0 18 13.2 N 41 57 22 31 1011.1 1010.4 0.0
22/12:15pm 28.6 18.8 2.0 18 13.2 N 43 61 23 33 1011.5 1010.8 0.0
22/12:00pm 28.0 19.0 2.2 19 12.8 N 39 54 21 29 1011.6 1010.9 0.0
22/11:30am 28.2 18.4 2.4 19 12.8 N 43 57 23 31 1012.5 1011.7 0.0
22/11:00am 26.8 16.8 2.0 20 12.1 N 44 57 24 31 1012.8 1012.0 0.0
22/10:30am 25.5 15.8 2.9 23 11.1 N 43 56 23 30 1013.2 1012.4 0.0
22/10:00am 24.3 16.5 3.0 25 10.4 NNE 33 48 18 26 1013.2 1012.4 0.0
22/09:30am 22.1 16.2 3.7 30 9.0 N 24 35 13 19 1014.0 1013.3 0.0
22/09:00am 19.2 15.2 6.7 44 6.3 NNE 17 20 9 11 1014.3 1013.6 0.0
22/08:30am 16.3 12.2 6.2 51 5.0 NE 17 19 9 10 1014.3 1013.6 0.0
22/08:00am 13.5 10.0 7.1 65 3.1 NNE 15 17 8 9 1014.4 1013.7 0.0
22/07:30am 8.9 5.7 5.3 78 1.6 NNE 11 13 6 7 1014.3 1013.6 0.0
22/07:00am 8.8 5.9 4.4 74 2.0 NNE 9 9 5 5 1013.9 1013.1 0.0
22/06:30am 6.7 3.3 4.2 84 1.1 NNE 11 13 6 7 1014.0 1013.3 0.0
22/06:00am 6.5 4.7 3.7 82 1.2 N 2 4 1 2 1013.9 1013.1 0.0
22/05:30am 7.3 4.6 3.9 79 1.5 NE 7 11 4 6 1013.7 1012.9 0.0
22/05:00am 9.9 7.5 4.1 67 2.6 NNE 6 7 3 4 1013.7 1012.9 0.0
22/04:30am 7.8 4.9 4.6 80 1.4 NNE 9 11 5 6 1014.2 1013.5 0.0
22/04:00am 7.4 5.0 4.4 81 1.3 N 6 7 3 4 1014.6 1013.9 0.0
22/03:30am 8.2 5.7 4.6 78 1.6 SE 7 9 4 5 1014.8 1014.1 0.0
22/03:00am 10.9 7.7 5.2 68 2.6 N 11 13 6 7 1015.1 1014.4 0.0
22/02:30am 10.1 7.3 5.3 72 2.2 N 9 11 5 6 1015.3 1014.6 0.0
22/02:00am 9.9 7.2 5.7 75 1.9 NNE 9 9 5 5 1015.7 1015.0 0.0
22/01:30am 9.8 7.7 5.6 75 1.9 NE 6 7 3 4 1016.1 1015.4 0.0
22/01:00am 9.4 7.5 6.5 82 1.4 ENE 6 9 3 5 1016.4 1015.7 0.0
22/12:30am 10.3 8.4 6.8 79 1.7 E 6 7 3 4 1016.8 1016.1 0.0
22/12:00am 11.8 10.0 7.9 77 1.9 E 7 11 4 6 1017.2 1016.4 0.0
 
Date/Time
EDT
Temp
°C
App
Temp
°C
Dew
Point
°C
Rel
Hum
%
Delta-T
°C
Wind Press
QNH
hPa
Press
MSL
hPa
Rain since
9am
mm
Dir  Spd
km/h
Gust
km/h
Spd
kts
Gust
kts
21/11:30pm 12.7 10.6 8.2 74 2.3 E 9 11 5 6 1017.4 1016.6 0.0
21/11:00pm 13.8 12.0 8.0 68 2.9 E 7 9 4 5 1017.4 1016.6 0.0
21/10:30pm 12.1 9.3 5.0 62 3.3 E 9 13 5 7 1017.7 1016.9 0.0
21/10:00pm 13.0 10.7 4.9 58 3.8 NNW 6 7 3 4 1017.5 1016.7 0.0
21/09:30pm 15.2 13.2 4.6 49 5.0 NNW 4 6 2 3 1017.3 1016.5 0.0
21/09:20pm 14.8 12.8 4.5 50 4.8 NNW 4 6 2 3 1017.2 1016.4 0.0
21/09:00pm 19.8 16.9 2.6 32 8.1 N 7 9 4 5 1017.0 1016.3 0.0
21/08:30pm 19.6 16.8 2.9 33 7.9 N 7 9 4 5 1016.8 1016.1 0.0
21/08:00pm 21.2 18.0 3.0 30 8.7 N 9 11 5 6 1016.6 1015.9 0.0
21/07:30pm 24.1 20.0 2.3 24 10.5 N 13 17 7 9 1016.6 1015.9 0.0
21/07:00pm 24.7 20.6 2.2 23 10.9 N 13 17 7 9 1016.5 1015.8 0.0
21/06:30pm 25.0 22.2 3.0 24 10.8 N 7 15 4 8 1016.4 1015.7 0.0
21/06:00pm 25.0 20.9 2.4 23 11.0 NNE 13 26 7 14 1016.6 1015.9 0.0
21/05:30pm 24.4 21.7 2.5 24 10.6 NW 6 11 3 6 1017.0 1016.3 0.0
21/05:00pm 24.7 21.5 2.8 24 10.7 NNW 9 17 5 9 1017.4 1016.6 0.0
21/04:30pm 24.3 20.9 1.9 23 10.7 WNW 9 15 5 8 1017.8 1017.0 0.0
21/04:00pm 23.5 20.5 1.8 24 10.3 NNW 7 13 4 7 1018.1 1017.4 0.0
21/03:30pm 23.3 20.5 2.2 25 10.1 NE 6 9 3 5 1018.5 1017.8 0.0
21/03:00pm 22.3 19.3 1.9 26 9.6 WSW 7 15 4 8 1019.0 1018.3 0.0
21/02:30pm 22.4 19.4 4.0 30 9.1 WNW 9 22 5 12 1019.5 1018.8 0.0
21/02:00pm 21.2 18.7 3.9 32 8.4 W 6 13 3 7 1019.6 1018.9 0.0
21/01:30pm 20.7 17.3 3.9 33 8.2 W 11 19 6 10 1020.2 1019.5 0.0
21/01:00pm 20.0 17.5 3.7 34 7.8 NW 6 13 3 7 1020.5 1019.8 0.0
21/12:30pm 19.4 16.6 5.1 39 7.0 NNE 9 20 5 11 1020.5 1019.8 0.0
21/12:00pm 17.9 15.5 5.2 43 6.2 NNW 7 13 4 7 1021.1 1020.4 0.0
21/11:30am 17.9 16.2 5.8 45 6.0 N 4 9 2 5 1021.5 1020.8 0.0
21/11:00am 16.8 14.8 6.3 50 5.2 ENE 6 11 3 6 1021.5 1020.8 0.0
21/10:30am 16.0 14.2 7.0 55 4.5 ESE 6 11 3 6 1021.8 1021.1 0.0
21/10:00am 15.0 13.3 7.5 61 3.7 ESE 6 9 3 5 1021.8 1021.1 0.0
21/09:30am 13.1 12.5 9.0 76 2.1 NE 2 4 1 2 1021.8 1021.1 0.0
21/09:00am 10.7 10.1 9.1 90 0.8 NNW 2 4 1 2 1021.8 1021.1 0.2
21/08:30am 8.6 7.8 8.0 96 0.3 N 2 4 1 2 1021.4 1020.7 0.2
21/08:00am 6.6 5.3 6.2 97 0.2 N 2 4 1 2 1021.1 1020.4 0.2
21/07:30am 2.8 0.8 2.2 96 0.2 N 2 6 1 3 1020.7 1020.0 0.2
21/07:00am 2.1 0.3 1.5 96 0.2 CALM 0 0 0 0 1020.4 1019.7 0.2
21/06:30am 2.5 0.8 1.9 96 0.2 CALM 0 0 0 0 1020.1 1019.4 0.2
21/06:00am 3.3 1.0 2.7 96 0.2 N 4 6 2 3 1019.7 1019.0 0.2
21/05:30am 3.6 1.3 3.0 96 0.2 N 4 4 2 2 1019.5 1018.8 0.2
21/05:00am 3.3 1.0 2.6 95 0.3 N 4 6 2 3 1019.3 1018.6 0.2
21/04:30am 3.3 1.0 2.6 95 0.3 N 4 6 2 3 1019.3 1018.6 0.2
21/04:00am 3.6 0.9 2.9 95 0.3 N 6 7 3 4 1019.3 1018.6 0.2
21/03:30am 3.6 0.9 2.9 95 0.3 N 6 7 3 4 1019.3 1018.6 0.2
21/03:00am 3.0 1.3 2.0 93 0.4 CALM 0 0 0 0 1019.4 1018.7 0.2
21/02:30am 4.2 2.7 3.2 93 0.4 CALM 0 0 0 0 1019.4 1018.7 0.2
21/02:00am 4.1 2.6 2.9 92 0.5 CALM 0 0 0 0 1019.3 1018.6 0.2
21/01:30am 5.0 3.6 3.7 91 0.6 CALM 0 4 0 2 1019.6 1018.9 0.2
21/01:00am 6.2 3.9 4.8 91 0.6 NNW 6 7 3 4 1019.8 1019.1 0.2
21/12:30am 6.5 4.2 4.8 89 0.7 SW 6 7 3 4 1019.8 1019.1 0.2
21/12:00am 6.9 4.7 5.1 88 0.8 SW 6 6 3 3 1019.8 1019.1 0.2
 
Date/Time
EDT
Temp
°C
App
Temp
°C
Dew
Point
°C
Rel
Hum
%
Delta-T
°C
Wind Press
QNH
hPa
Press
MSL
hPa
Rain since
9am
mm
Dir  Spd
km/h
Gust
km/h
Spd
kts
Gust
kts
20/11:30pm 9.5 8.0 6.6 82 1.4 SW 4 4 2 2 1019.6 1018.9 0.2
20/11:00pm 10.2 8.7 6.9 80 1.6 SW 4 6 2 3 1019.5 1018.8 0.2
20/10:30pm 10.1 8.5 6.4 78 1.7 SW 4 4 2 2 1019.4 1018.7 0.2
20/10:00pm 10.2 8.0 6.0 75 2.0 SW 7 9 4 5 1019.4 1018.7 0.2
20/09:30pm 10.6 7.9 5.8 72 2.2 SW 9 11 5 6 1019.1 1018.4 0.2
20/09:00pm 11.2 8.6 5.9 70 2.5 SSW 9 13 5 7 1018.7 1018.0 0.2
20/08:30pm 12.9 9.2 6.3 64 3.2 SSW 15 20 8 11 1018.3 1017.6 0.2
20/08:00pm 14.5 10.3 5.8 56 4.2 SSW 17 24 9 13 1017.7 1016.9 0.2
20/07:30pm 15.4 10.3 6.2 54 4.5 SSW 22 30 12 16 1017.3 1016.5 0.2
20/07:00pm 16.3 10.4 5.9 50 5.1 SSW 26 33 14 18 1016.9 1016.2 0.2
20/06:30pm 16.3 10.8 5.9 50 5.1 SW 24 32 13 17 1016.8 1016.1 0.2
20/06:00pm 16.6 11.2 6.4 51 5.0 SW 24 33 13 18 1016.4 1015.7 0.2
20/05:30pm 17.4 11.6 6.3 48 5.5 SSW 26 37 14 20 1016.1 1015.4 0.2
20/05:00pm 17.2 11.4 6.1 48 5.5 SW 26 41 14 22 1015.8 1015.1 0.2
20/04:30pm 17.5 11.7 6.1 47 5.6 SW 26 39 14 21 1015.6 1014.9 0.2
20/04:00pm 17.1 11.2 6.0 48 5.5 SW 26 35 14 19 1015.5 1014.8 0.2
20/03:30pm 17.5 11.1 5.4 45 5.9 SW 28 35 15 19 1015.3 1014.6 0.2
20/03:00pm 17.7 11.9 6.3 47 5.7 SW 26 39 14 21 1015.4 1014.7 0.2
20/02:30pm 17.6 11.9 6.8 49 5.4 SW 26 37 14 20 1015.3 1014.6 0.2
20/02:00pm 19.1 13.7 6.2 43 6.5 SW 24 39 13 21 1015.2 1014.5 0.0
20/01:30pm 16.9 11.8 5.8 48 5.4 SW 22 33 12 18 1015.5 1014.8 0.0
20/01:00pm 16.6 11.6 6.4 51 5.0 WSW 22 33 12 18 1015.5 1014.8 0.0
20/12:30pm 16.4 11.9 6.8 53 4.8 WSW 20 28 11 15 1015.5 1014.8 0.0
20/12:00pm 17.7 12.9 5.6 45 5.9 SW 20 32 11 17 1015.5 1014.8 0.0
20/11:30am 15.5 9.9 5.4 51 4.9 SW 24 35 13 19 1015.5 1014.8 0.0
20/11:00am 16.6 12.2 7.5 55 4.6 SW 20 35 11 19 1015.6 1014.9 0.0
20/10:30am 15.1 10.3 7.4 60 3.9 SW 22 33 12 18 1015.6 1014.9 0.0
20/10:00am 14.1 10.6 8.7 70 2.8 WSW 17 22 9 12 1015.5 1014.8 0.0
20/09:30am 13.2 10.3 9.5 78 1.9 WSW 15 22 8 12 1015.3 1014.6 0.0
20/09:00am 12.5 9.6 9.7 83 1.4 WSW 15 20 8 11 1015.0 1014.3 2.6
20/08:30am 11.2 9.0 9.3 88 1.0 W 11 19 6 10 1014.6 1013.9 2.6
20/08:00am 9.9 7.0 8.2 89 0.8 W 13 19 7 10 1014.3 1013.6 2.6
20/07:30am 9.7 6.8 8.1 90 0.8 W 13 19 7 10 1013.8 1013.0 2.6
20/07:00am 9.5 7.0 8.1 91 0.7 W 11 15 6 8 1013.5 1012.7 2.6
20/06:30am 9.3 6.4 8.1 92 0.6 W 13 17 7 9 1013.1 1012.3 2.6
20/06:00am 9.3 6.3 7.9 91 0.7 W 13 19 7 10 1012.9 1012.1 2.6
20/05:30am 9.5 6.6 8.1 91 0.7 W 13 19 7 10 1012.8 1012.0 2.6
20/05:00am 9.6 7.1 8.2 91 0.7 W 11 19 6 10 1012.7 1011.9 2.6
20/04:30am 9.2 6.2 7.8 91 0.7 W 13 19 7 10 1012.6 1011.8 2.6
20/04:00am 9.5 6.2 8.1 91 0.7 W 15 20 8 11 1012.5 1011.7 2.6
20/03:30am 9.1 6.1 7.7 91 0.7 W 13 20 7 11 1012.3 1011.6 2.6
20/03:00am 9.3 6.4 8.1 92 0.6 W 13 19 7 10 1012.3 1011.6 2.6
20/02:30am 9.3 6.0 7.9 91 0.7 W 15 24 8 13 1012.3 1011.6 2.6
20/02:00am 9.3 5.9 7.7 90 0.8 W 15 22 8 12 1012.5 1011.7 2.6
20/01:30am 9.2 5.8 7.8 91 0.7 W 15 20 8 11 1012.7 1011.9 2.6
20/01:00am 9.6 5.9 8.0 90 0.8 W 17 24 9 13 1012.7 1011.9 2.6
20/12:30am 9.6 6.7 8.2 91 0.7 WNW 13 17 7 9 1012.6 1011.8 2.6
20/12:00am 9.7 6.4 8.1 90 0.8 W 15 22 8 12 1012.7 1011.9 2.6
 
Date/Time
EDT
Temp
°C
App
Temp
°C
Dew
Point
°C
Rel
Hum
%
Delta-T
°C
Wind Press
QNH
hPa
Press
MSL
hPa
Rain since
9am
mm
Dir  Spd
km/h
Gust
km/h
Spd
kts
Gust
kts
19/11:30pm 9.9 7.0 8.0 88 0.9 W 13 20 7 11 1012.8 1012.0 2.6
19/11:00pm 9.7 6.7 7.6 87 1.0 W 13 20 7 11 1013.0 1012.2 2.6
19/10:30pm 9.8 6.8 7.7 87 1.0 W 13 20 7 11 1012.9 1012.1 2.6
19/10:00pm 10.0 6.6 7.6 85 1.2 W 15 22 8 12 1012.6 1011.8 2.6

Other Formats:

Comma delimited format used in spreadsheet applications
http://www.bom.gov.au/fwo/IDV60801/IDV60801.95840.axf

JavaScript Object Notation format (JSON) in row-major order
http://www.bom.gov.au/fwo/IDV60801/IDV60801.95840.json